Barueri, Brazil
Current Conditions -  °F | °C
As of 11:00 PM on Wednesday 26 Nov 2014 (Local Time) from SBMT Reporting Station
Drizzle Drizzle  
Wind Chill: 72°   Ceiling: 800
Heat Index: 72°   Visibility: 1.8mi
Dew Point: 68°   Wind: 5mph
Humidity: 88%   Direction: 130°SE
Pressure: 29.94"   Gusts: NA
Location:  23.49°S, 46.86°W
Report Text: SBMT 270100Z 13004KT 3000 -DZ BR OVC008 22/20 Q1014
Loading
Personal Weather Stations






























Interactive Weather Map New forecast layout! Learn more

10-Day Weather Forecast

Advertisements
Track Severe Weather on mobile